createdAt,value
2023-04-11T00:01:42.944Z,45.40
2023-04-11T00:04:12.863Z,49.92
2023-04-11T00:06:44.061Z,37.42
2023-04-11T00:09:13.687Z,34.92
2023-04-11T00:11:42.968Z,37.58
2023-04-11T00:14:17.312Z,33.80
2023-04-11T00:16:49.284Z,33.22
2023-04-11T00:19:25.276Z,30.00
2023-04-11T00:21:57.884Z,32.67
2023-04-11T00:24:32.567Z,32.22
2023-04-11T00:27:01.808Z,29.42
2023-04-11T00:29:33.699Z,29.63
2023-04-11T00:32:03.050Z,31.90
2023-04-11T00:34:33.856Z,31.85
2023-04-11T00:37:05.378Z,32.55
2023-04-11T00:39:35.389Z,35.00
2023-04-11T00:42:09.004Z,37.03
2023-04-11T00:44:39.946Z,46.55
2023-04-11T00:47:15.377Z,36.15
2023-04-11T00:49:45.260Z,45.50
2023-04-11T00:52:16.373Z,38.55
2023-04-11T00:54:52.953Z,37.72
2023-04-11T00:57:27.743Z,39.28
2023-04-11T00:59:58.320Z,45.80
2023-04-11T01:02:27.775Z,35.78
2023-04-11T01:04:58.853Z,36.85
2023-04-11T01:07:33.119Z,40.45
2023-04-11T01:10:15.536Z,40.10
2023-04-11T01:12:46.070Z,38.63
2023-04-11T01:15:15.304Z,41.08
2023-04-11T01:17:45.275Z,43.08
2023-04-11T01:20:28.162Z,37.97
2023-04-11T01:23:04.940Z,43.75
2023-04-11T01:25:36.304Z,39.55
2023-04-11T01:28:06.038Z,33.00
2023-04-11T01:30:35.374Z,33.60
2023-04-11T01:33:10.497Z,29.52
2023-04-11T01:35:40.274Z,30.17
2023-04-11T01:38:20.900Z,30.25
2023-04-11T01:40:53.763Z,28.23
2023-04-11T01:43:33.634Z,34.88
2023-04-11T01:46:04.205Z,29.60
2023-04-11T01:48:36.049Z,27.88
2023-04-11T01:53:39.555Z,32.53
2023-04-11T01:56:12.440Z,29.08
2023-04-11T01:58:41.685Z,33.08
2023-04-11T02:01:12.898Z,38.65
2023-04-11T02:03:42.410Z,31.70
2023-04-11T02:06:11.740Z,28.88
2023-04-11T02:08:47.876Z,29.42
2023-04-11T02:11:19.133Z,29.40
2023-04-11T02:13:52.528Z,31.15
2023-04-11T02:16:52.510Z,33.67
2023-04-11T02:19:27.082Z,30.25
2023-04-11T02:21:56.360Z,34.17
2023-04-11T02:24:25.475Z,28.70
2023-04-11T02:27:08.147Z,30.85
2023-04-11T02:29:37.853Z,33.13
2023-04-11T02:32:07.292Z,28.73
2023-04-11T02:34:37.062Z,27.17
2023-04-11T02:37:06.198Z,32.55
2023-04-11T02:39:36.568Z,32.03
2023-04-11T02:44:48.459Z,28.60
2023-04-11T02:47:20.393Z,28.88
2023-04-11T02:49:50.631Z,25.48
2023-04-11T02:52:25.861Z,31.90
2023-04-11T02:54:55.394Z,25.40
2023-04-11T02:57:26.801Z,28.90
2023-04-11T02:59:57.675Z,26.02
2023-04-11T03:02:35.095Z,28.63
2023-04-11T03:05:04.906Z,38.00
2023-04-11T03:07:40.357Z,38.47
2023-04-11T03:10:12.050Z,30.20
2023-04-11T03:12:48.408Z,29.50
2023-04-11T03:15:17.876Z,28.83
2023-04-11T03:17:47.365Z,31.02
2023-04-11T03:20:19.317Z,27.13
2023-04-11T03:22:56.417Z,27.83
2023-04-11T03:25:27.898Z,35.42
2023-04-11T03:27:59.537Z,24.43
2023-04-11T03:30:29.846Z,27.55
2023-04-11T03:33:00.706Z,22.98
2023-04-11T03:35:36.389Z,22.98
2023-04-11T03:38:05.986Z,26.35
2023-04-11T03:40:41.866Z,25.92
2023-04-11T03:43:17.685Z,34.97
2023-04-11T03:45:47.927Z,34.15
2023-04-11T03:48:33.204Z,35.08
2023-04-11T03:51:13.060Z,40.22
2023-04-11T03:53:52.938Z,39.38
2023-04-11T03:56:36.133Z,34.60
2023-04-11T03:59:07.450Z,41.38
2023-04-11T04:01:49.550Z,42.92
2023-04-11T04:04:19.031Z,44.55
2023-04-11T04:06:56.388Z,45.35
2023-04-11T04:09:32.114Z,49.03
2023-04-11T04:12:07.589Z,41.95
2023-04-11T04:15:02.053Z,38.88
2023-04-11T04:20:13.381Z,42.25
2023-04-11T04:22:47.883Z,38.83
2023-04-11T04:25:20.731Z,44.08
2023-04-11T04:27:53.827Z,45.90
2023-04-11T04:30:28.499Z,46.42
2023-04-11T04:35:51.177Z,43.22
2023-04-11T04:38:21.200Z,47.63
2023-04-11T04:40:56.703Z,42.03
2023-04-11T04:43:31.908Z,38.00
2023-04-11T04:49:02.297Z,48.88
2023-04-11T04:51:32.010Z,48.97
2023-04-11T04:54:01.442Z,43.65
2023-04-11T04:56:30.877Z,46.83
2023-04-11T04:59:01.255Z,45.90
2023-04-11T05:01:34.818Z,47.05
2023-04-11T05:04:10.912Z,41.17
2023-04-11T05:06:51.373Z,39.50
2023-04-11T05:09:26.001Z,42.63
2023-04-11T05:12:01.006Z,43.22
2023-04-11T05:14:37.792Z,40.78
2023-04-11T05:17:09.432Z,41.17
2023-04-11T05:19:43.701Z,47.80
2023-04-11T05:22:13.431Z,39.85
2023-04-11T05:24:59.381Z,46.65
2023-04-11T05:27:29.014Z,37.25
2023-04-11T05:29:59.255Z,46.08
2023-04-11T05:32:35.731Z,48.08
2023-04-11T05:35:05.921Z,51.08
2023-04-11T05:37:57.903Z,45.13
2023-04-11T05:40:27.479Z,40.08
2023-04-11T05:42:56.590Z,42.25
2023-04-11T05:45:33.605Z,43.30
2023-04-11T05:48:06.729Z,49.97
2023-04-11T05:50:36.514Z,46.08
2023-04-11T05:53:05.662Z,44.00
2023-04-11T05:55:35.267Z,48.03
2023-04-11T05:58:04.531Z,41.42
2023-04-11T06:00:33.861Z,42.47
2023-04-11T06:03:05.695Z,41.05
2023-04-11T06:08:05.957Z,52.17
2023-04-11T06:10:35.457Z,42.30
2023-04-11T06:13:04.676Z,33.80
2023-04-11T06:15:34.231Z,39.33
2023-04-11T06:18:06.176Z,34.47
2023-04-11T06:20:40.524Z,35.30
2023-04-11T06:23:09.781Z,37.83
2023-04-11T06:25:39.021Z,33.03
2023-04-11T06:28:08.424Z,38.38
2023-04-11T06:30:37.825Z,33.97
2023-04-11T06:33:09.071Z,35.53
2023-04-11T06:35:38.548Z,37.97
2023-04-11T06:38:13.828Z,34.70
2023-04-11T06:40:43.054Z,34.05
2023-04-11T06:43:12.166Z,35.65
2023-04-11T06:45:54.597Z,35.20
2023-04-11T06:48:26.088Z,35.42
2023-04-11T06:50:55.519Z,36.53
2023-04-11T06:53:24.854Z,32.40
2023-04-11T06:55:54.309Z,32.13
2023-04-11T06:58:23.812Z,30.77
2023-04-11T07:01:11.996Z,29.85
2023-04-11T07:04:08.592Z,24.13
2023-04-11T07:06:37.862Z,23.23
2023-04-11T07:09:10.593Z,24.88
2023-04-11T07:11:40.345Z,27.52
2023-04-11T07:14:09.737Z,24.85
2023-04-11T07:16:39.099Z,23.88
2023-04-11T07:19:10.501Z,20.83
2023-04-11T07:21:40.200Z,21.25
2023-04-11T07:24:10.234Z,21.95
2023-04-11T07:26:41.821Z,23.67
2023-04-11T07:29:13.901Z,22.75
2023-04-11T07:31:45.722Z,26.77
2023-04-11T07:37:00.403Z,22.25
2023-04-11T07:39:30.388Z,24.52
2023-04-11T07:42:00.447Z,18.00
2023-04-11T07:44:44.913Z,18.35
2023-04-11T07:47:14.217Z,17.98
2023-04-11T07:50:01.569Z,19.05
2023-04-11T07:52:32.285Z,21.27
2023-04-11T07:55:20.214Z,20.15
2023-04-11T07:57:54.604Z,21.52
2023-04-11T08:00:25.239Z,23.70
2023-04-11T08:02:54.847Z,18.48
2023-04-11T08:05:32.439Z,17.75
2023-04-11T08:08:01.828Z,17.95
2023-04-11T08:10:36.157Z,23.42
2023-04-11T08:13:05.670Z,18.00
2023-04-11T08:18:33.421Z,29.05
2023-04-11T08:21:04.861Z,24.83
2023-04-11T08:23:47.398Z,19.58
2023-04-11T08:26:21.816Z,25.15
2023-04-11T08:29:10.810Z,20.00
2023-04-11T08:34:20.525Z,21.23
2023-04-11T08:36:51.768Z,25.35
2023-04-11T08:39:26.224Z,22.92
2023-04-11T08:41:55.545Z,24.55
2023-04-11T08:44:24.864Z,21.25
2023-04-11T08:46:59.923Z,19.33
2023-04-11T08:49:29.960Z,22.88
2023-04-11T08:52:06.402Z,17.83
2023-04-11T08:54:35.587Z,20.63
2023-04-11T08:57:05.181Z,18.20
2023-04-11T08:59:40.488Z,18.23
2023-04-11T09:02:11.456Z,26.45
2023-04-11T09:04:46.994Z,19.60
2023-04-11T09:07:18.709Z,18.27
2023-04-11T09:09:48.525Z,16.30
2023-04-11T09:12:21.256Z,13.93
2023-04-11T09:14:50.747Z,18.63
2023-04-11T09:17:19.972Z,14.88
2023-04-11T09:19:59.489Z,16.10
2023-04-11T09:22:44.325Z,17.52
2023-04-11T09:25:13.863Z,21.55
2023-04-11T09:27:44.457Z,22.00
2023-04-11T09:30:24.422Z,17.10
2023-04-11T09:32:55.726Z,16.10
2023-04-11T09:35:28.255Z,20.02
2023-04-11T09:38:03.151Z,19.20
2023-04-11T09:43:12.500Z,18.33
2023-04-11T09:45:53.757Z,15.95
2023-04-11T09:48:43.383Z,17.35
2023-04-11T09:51:28.016Z,13.75
2023-04-11T09:54:04.508Z,13.20
2023-04-11T09:56:35.737Z,16.67
2023-04-11T09:59:10.628Z,17.67
2023-04-11T10:01:41.017Z,15.60
2023-04-11T10:04:15.584Z,18.67
2023-04-11T10:06:57.318Z,13.25
2023-04-11T10:11:58.058Z,18.27
2023-04-11T10:14:50.248Z,19.08
2023-04-11T10:17:23.616Z,17.65
2023-04-11T10:20:05.266Z,18.48
2023-04-11T10:23:02.614Z,22.38
2023-04-11T10:25:51.274Z,15.55
2023-04-11T10:28:38.143Z,14.20
2023-04-11T10:31:17.117Z,22.92
2023-04-11T10:34:15.069Z,17.35
2023-04-11T10:37:06.012Z,25.13
2023-04-11T10:40:10.061Z,16.83
2023-04-11T10:42:43.103Z,16.30
2023-04-11T10:45:24.085Z,18.52
2023-04-11T10:48:12.008Z,14.60
2023-04-11T10:50:46.015Z,15.27
2023-04-11T10:53:36.780Z,14.90
2023-04-11T10:56:06.696Z,16.08
2023-04-11T10:58:40.131Z,16.13
2023-04-11T11:01:32.100Z,19.90
2023-04-11T11:04:12.675Z,22.05
2023-04-11T11:06:47.560Z,14.43
2023-04-11T11:09:30.870Z,15.07
2023-04-11T11:12:10.759Z,17.73
2023-04-11T11:14:44.103Z,15.50
2023-04-11T11:17:15.404Z,16.30
2023-04-11T11:19:46.347Z,15.48
2023-04-11T11:22:25.199Z,19.38
2023-04-11T11:25:10.156Z,16.30
2023-04-11T11:27:39.644Z,14.85
2023-04-11T11:30:17.798Z,15.70
2023-04-11T11:32:47.198Z,13.43
2023-04-11T11:35:16.453Z,15.18
2023-04-11T11:37:53.995Z,14.57
2023-04-11T11:40:29.631Z,18.38
2023-04-11T11:45:36.420Z,22.00
2023-04-11T11:48:05.893Z,17.67
2023-04-11T11:50:35.408Z,17.02
2023-04-11T11:53:15.622Z,18.98
2023-04-11T11:55:46.893Z,21.50
2023-04-11T11:58:16.965Z,16.63
2023-04-11T12:00:54.264Z,16.17
2023-04-11T12:03:25.514Z,15.80
2023-04-11T12:05:57.880Z,18.30
2023-04-11T12:08:27.185Z,24.05
2023-04-11T12:10:56.442Z,16.52
2023-04-11T12:13:27.765Z,16.23
2023-04-11T12:16:02.428Z,14.73
2023-04-11T12:18:36.831Z,15.13
2023-04-11T12:21:06.326Z,16.15
2023-04-11T12:23:35.837Z,18.02
2023-04-11T12:26:05.505Z,25.17
2023-04-11T12:28:34.799Z,15.07
2023-04-11T12:31:12.767Z,18.02
2023-04-11T12:33:47.094Z,16.15
2023-04-11T12:36:17.509Z,16.95
2023-04-11T12:38:46.667Z,14.63
2023-04-11T12:41:31.785Z,17.85
2023-04-11T12:44:06.858Z,14.70
2023-04-11T12:52:17.670Z,11.45
2023-04-11T12:54:46.986Z,14.73
2023-04-11T12:57:16.830Z,10.75
2023-04-11T12:59:46.284Z,20.80
2023-04-11T13:02:15.896Z,13.25
2023-04-11T13:04:45.600Z,15.15
2023-04-11T13:07:16.954Z,13.60
2023-04-11T13:09:46.382Z,13.52
2023-04-11T13:12:16.239Z,12.45
2023-04-11T13:14:50.844Z,11.20
2023-04-11T13:17:20.279Z,10.45
2023-04-11T13:19:49.406Z,13.95
2023-04-11T13:22:21.114Z,13.23
2023-04-11T13:25:01.768Z,16.40
2023-04-11T13:30:01.275Z,14.55
2023-04-11T13:32:31.699Z,11.82
2023-04-11T13:35:00.964Z,12.05
2023-04-11T13:37:32.164Z,10.60
2023-04-11T13:40:06.436Z,10.68
2023-04-11T13:42:35.749Z,11.32
2023-04-11T13:45:05.175Z,13.85
2023-04-11T13:47:39.766Z,13.98
2023-04-11T13:50:11.110Z,10.55
2023-04-11T13:52:47.385Z,20.15
2023-04-11T13:55:16.662Z,12.05
2023-04-11T13:57:45.982Z,17.38
2023-04-11T14:00:22.361Z,16.33
2023-04-11T14:02:52.688Z,14.13
2023-04-11T14:05:26.390Z,15.63
2023-04-11T14:07:57.717Z,16.60
2023-04-11T14:10:27.855Z,18.23
2023-04-11T14:12:57.164Z,15.38
2023-04-11T14:15:37.741Z,16.83
2023-04-11T14:18:07.802Z,14.57
2023-04-11T14:20:37.189Z,15.93
2023-04-11T14:25:52.366Z,13.88
2023-04-11T14:28:21.710Z,16.50
2023-04-11T14:30:51.291Z,16.30
2023-04-11T14:33:27.310Z,15.25
2023-04-11T14:36:02.124Z,14.75
2023-04-11T14:38:33.644Z,14.35
2023-04-11T14:41:03.028Z,16.00
2023-04-11T14:43:32.644Z,13.05
2023-04-11T14:46:07.709Z,13.90
2023-04-11T14:48:37.060Z,16.33
2023-04-11T14:51:06.909Z,11.68
2023-04-11T14:53:38.263Z,10.90
2023-04-11T14:56:08.373Z,14.52
2023-04-11T15:01:19.695Z,13.63
2023-04-11T15:03:49.017Z,15.73
2023-04-11T15:06:18.403Z,15.95
2023-04-11T15:08:51.135Z,14.27
2023-04-11T15:11:31.300Z,11.63
2023-04-11T15:14:00.583Z,13.88
2023-04-11T15:16:29.845Z,12.57
2023-04-11T15:18:59.452Z,11.02
2023-04-11T15:21:28.661Z,15.02
2023-04-11T15:24:10.853Z,14.02
2023-04-11T15:26:40.353Z,12.50
2023-04-11T15:34:22.967Z,18.73
2023-04-11T15:39:28.799Z,18.42
2023-04-11T15:41:58.358Z,17.05
2023-04-11T15:44:27.670Z,12.63
2023-04-11T15:47:02.346Z,15.88
2023-04-11T15:49:31.744Z,14.00
2023-04-11T15:52:00.913Z,17.33
2023-04-11T15:54:37.456Z,15.40
2023-04-11T15:57:06.775Z,17.83
2023-04-11T15:59:37.691Z,16.15
2023-04-11T16:02:07.655Z,20.75
2023-04-11T16:04:38.745Z,17.27
2023-04-11T16:07:09.170Z,12.80
2023-04-11T16:09:40.382Z,13.02
2023-04-11T16:12:09.847Z,14.20
2023-04-11T16:14:39.179Z,15.05
2023-04-11T16:17:08.398Z,24.80
2023-04-11T16:19:38.287Z,18.73
2023-04-11T16:22:07.564Z,21.13
2023-04-11T16:24:36.847Z,25.30
2023-04-11T16:27:13.613Z,24.50
2023-04-11T16:32:13.127Z,15.35
2023-04-11T16:37:26.328Z,19.63
2023-04-11T16:39:56.261Z,23.90
2023-04-11T16:42:27.705Z,31.17
2023-04-11T16:44:57.302Z,22.27
2023-04-11T16:47:27.125Z,21.77
2023-04-11T16:50:01.579Z,25.38
2023-04-11T16:52:32.694Z,33.63
2023-04-11T16:55:03.134Z,31.08
2023-04-11T16:57:35.200Z,36.13
2023-04-11T17:00:07.635Z,34.58
2023-04-11T17:02:37.330Z,28.33
2023-04-11T17:05:07.757Z,37.17
2023-04-11T17:07:37.685Z,26.80
2023-04-11T17:10:08.384Z,22.75
2023-04-11T17:12:39.700Z,28.05
2023-04-11T17:15:10.221Z,29.92
2023-04-11T17:17:44.686Z,27.70
2023-04-11T17:20:14.747Z,26.90
2023-04-11T17:22:44.598Z,22.08
2023-04-11T17:25:13.969Z,28.17
2023-04-11T17:27:45.543Z,22.92
2023-04-11T17:30:20.776Z,25.00
2023-04-11T17:32:50.174Z,19.67
2023-04-11T17:35:37.754Z,23.95
2023-04-11T17:38:07.117Z,31.58
2023-04-11T17:40:38.805Z,24.65
2023-04-11T17:45:44.913Z,22.92
2023-04-11T17:48:14.254Z,24.20
2023-04-11T17:53:20.836Z,24.42
2023-04-11T17:55:51.715Z,21.85
2023-04-11T17:58:22.964Z,26.17
2023-04-11T18:00:56.559Z,30.35
2023-04-11T18:03:26.719Z,34.15
2023-04-11T18:05:56.606Z,23.95
2023-04-11T18:08:39.221Z,24.33
2023-04-11T18:11:15.695Z,25.60
2023-04-11T18:13:49.849Z,27.08
2023-04-11T18:16:20.032Z,23.70
2023-04-11T18:18:49.826Z,24.60
2023-04-11T18:21:26.589Z,22.57
2023-04-11T18:24:08.805Z,23.67
2023-04-11T18:26:38.190Z,23.88
2023-04-11T18:29:09.389Z,26.20
2023-04-11T18:31:46.188Z,22.65
2023-04-11T18:34:16.402Z,33.05
2023-04-11T18:36:46.882Z,33.50
2023-04-11T18:39:16.972Z,40.93
2023-04-11T18:41:46.869Z,51.20
2023-04-11T18:44:34.115Z,41.95
2023-04-11T18:47:05.954Z,35.88
2023-04-11T18:49:36.109Z,41.17
2023-04-11T18:52:05.537Z,46.10
2023-04-11T18:54:35.287Z,40.65
2023-04-11T18:57:13.471Z,33.10
2023-04-11T18:59:51.694Z,36.03
2023-04-11T19:02:22.144Z,49.88
2023-04-11T19:04:52.656Z,48.30
2023-04-11T19:07:23.061Z,45.22
2023-04-11T19:09:52.819Z,49.35
2023-04-11T19:12:22.224Z,59.17
2023-04-11T19:14:58.711Z,44.85
2023-04-11T19:17:28.512Z,49.38
2023-04-11T19:20:06.154Z,43.90
2023-04-11T19:22:40.416Z,45.60
2023-04-11T19:25:12.132Z,46.30
2023-04-11T19:27:43.410Z,45.80
2023-04-11T19:30:15.545Z,45.83
2023-04-11T19:32:47.012Z,40.67
2023-04-11T19:35:16.734Z,43.42
2023-04-11T19:37:51.215Z,47.28
2023-04-11T19:40:22.924Z,53.83
2023-04-11T19:42:52.453Z,46.90
2023-04-11T19:45:23.810Z,52.33
2023-04-11T19:47:53.222Z,43.58
2023-04-11T19:50:22.978Z,54.50
2023-04-11T19:52:58.549Z,55.30
2023-04-11T19:55:28.684Z,49.03
2023-04-11T19:57:57.899Z,53.30
2023-04-11T20:00:32.230Z,51.13
2023-04-11T20:03:02.274Z,63.88
2023-04-11T20:05:32.281Z,54.15
2023-04-11T20:08:01.460Z,60.60
2023-04-11T20:10:31.330Z,50.03
2023-04-11T20:13:00.800Z,57.03
2023-04-11T20:15:32.373Z,57.65
2023-04-11T20:18:07.129Z,63.45
2023-04-11T20:20:38.023Z,58.83
2023-04-11T20:23:07.338Z,62.97
2023-04-11T20:28:16.488Z,52.50
2023-04-11T20:30:58.861Z,49.13
2023-04-11T20:33:43.812Z,57.72
2023-04-11T20:36:15.201Z,56.10
2023-04-11T20:38:44.802Z,64.03
2023-04-11T20:41:29.987Z,57.75
2023-04-11T20:43:59.704Z,58.65
2023-04-11T20:46:31.231Z,66.63
2023-04-11T20:49:02.527Z,73.07
2023-04-11T20:51:50.968Z,75.70
2023-04-11T20:54:20.665Z,68.80
2023-04-11T20:56:49.919Z,61.00
2023-04-11T20:59:47.068Z,71.43
2023-04-11T21:02:18.960Z,70.05
2023-04-11T21:04:56.336Z,69.32
2023-04-11T21:07:25.983Z,57.65
2023-04-11T21:10:08.207Z,71.13
2023-04-11T21:12:38.184Z,68.10
2023-04-11T21:18:06.879Z,61.28
2023-04-11T21:20:36.921Z,68.80
2023-04-11T21:23:06.097Z,78.90
2023-04-11T21:25:35.662Z,65.53
2023-04-11T21:28:10.658Z,62.78
2023-04-11T21:30:41.889Z,55.90
2023-04-11T21:33:18.281Z,68.20
2023-04-11T21:35:47.636Z,56.08
2023-04-11T21:38:17.721Z,61.03
2023-04-11T21:40:47.809Z,67.43
2023-04-11T21:43:17.020Z,67.20
2023-04-11T21:45:46.382Z,71.22
2023-04-11T21:48:17.613Z,73.53
2023-04-11T21:50:48.034Z,82.18
2023-04-11T21:53:22.337Z,75.97
2023-04-11T21:56:04.480Z,65.30
2023-04-11T21:58:50.246Z,72.25
2023-04-11T22:01:23.512Z,67.35
2023-04-11T22:06:31.903Z,61.35
2023-04-11T22:09:09.699Z,56.33
2023-04-11T22:11:53.934Z,50.93
2023-04-11T22:14:27.371Z,58.63
2023-04-11T22:16:57.901Z,57.75
2023-04-11T22:19:29.278Z,56.67
2023-04-11T22:22:02.881Z,65.65
2023-04-11T22:24:32.259Z,50.28
2023-04-11T22:27:03.813Z,47.65
2023-04-11T22:29:34.192Z,46.08
2023-04-11T22:32:03.841Z,53.53
2023-04-11T22:35:05.426Z,50.75
2023-04-11T22:37:53.307Z,50.95
2023-04-11T22:40:23.395Z,51.45
2023-04-11T22:42:52.993Z,37.58
2023-04-11T22:45:36.974Z,42.42
2023-04-11T22:48:06.942Z,55.30
2023-04-11T22:53:27.550Z,38.90
2023-04-11T22:56:26.716Z,48.83
2023-04-11T22:59:14.828Z,36.88
2023-04-11T23:01:44.440Z,48.05
2023-04-11T23:04:13.663Z,46.25
2023-04-11T23:06:45.319Z,58.22
2023-04-11T23:09:14.679Z,49.25
2023-04-11T23:11:45.111Z,43.55
2023-04-11T23:14:15.036Z,41.33
2023-04-11T23:16:44.526Z,51.28
2023-04-11T23:19:13.706Z,47.95
2023-04-11T23:21:46.201Z,48.70
2023-04-11T23:24:16.453Z,47.22
2023-04-11T23:26:46.354Z,47.60
2023-04-11T23:29:15.411Z,43.50
2023-04-11T23:31:44.486Z,59.35
2023-04-11T23:34:13.655Z,40.40
2023-04-11T23:36:45.061Z,38.85
2023-04-11T23:39:14.485Z,52.22
2023-04-11T23:41:44.322Z,39.13
2023-04-11T23:44:13.441Z,45.03
2023-04-11T23:46:42.633Z,38.88
2023-04-11T23:49:12.056Z,35.08
2023-04-11T23:51:41.256Z,35.92
2023-04-11T23:54:17.849Z,39.78
2023-04-11T23:56:47.064Z,37.72
